Metar z połowy godziny Komunikat METAR ze strony awiacja.imgw.pl Metar G30 EPOK METAR EPOK 230800Z 15008KT 4000 BR NSC M06/M07 Q1011 RMK M058 089 0/0=